Brighton, Colorado
Current Conditions -  °F | °C
As of 10:15 AM on Friday 24 Oct 2014 (Local Time) from KEIK Reporting Station
Clear Clear  
Wind Chill: 68°   Ceiling: Unl
Heat Index: 68°   Visibility: 10mi
Dew Point: 30°   Wind: 0mph
Humidity: 24%   Direction: NA
Pressure: 30.18"   Gusts: NA
Location:  39.99°N, 104.81°W
Report Text: KEIK 241615Z AUTO 00000KT 10SM CLR 20/M01 A3018 RMK AO2 T02011011
Loading
Personal Weather Stations






























Interactive Weather Map
Tropical Storm Tracking
New forecast layout! Learn more

10-Day Weather Forecast

Advertisements
Track Severe Weather on mobile